createdAt,value
2023-05-07T00:00:30.594Z,1003.49
2023-05-07T00:01:30.594Z,1003.53
2023-05-07T00:02:30.689Z,1003.48
2023-05-07T00:03:30.739Z,1003.55
2023-05-07T00:04:30.600Z,1003.51
2023-05-07T00:05:35.559Z,1003.46
2023-05-07T00:06:30.521Z,1003.51
2023-05-07T00:07:30.510Z,1003.43
2023-05-07T00:08:30.533Z,1003.48
2023-05-07T00:09:30.505Z,1003.45
2023-05-07T00:10:30.480Z,1003.43
2023-05-07T00:11:30.466Z,1003.42
2023-05-07T00:12:30.458Z,1003.41
2023-05-07T00:13:30.450Z,1003.41
2023-05-07T00:14:30.476Z,1003.45
2023-05-07T00:15:30.430Z,1003.41
2023-05-07T00:16:35.501Z,1003.43
2023-05-07T00:17:30.416Z,1003.43
2023-05-07T00:18:30.394Z,1003.39
2023-05-07T00:19:30.470Z,1003.37
2023-05-07T00:20:30.371Z,1003.42
2023-05-07T00:21:30.373Z,1003.29
2023-05-07T00:22:30.365Z,1003.30
2023-05-07T00:23:30.353Z,1003.30
2023-05-07T00:24:30.336Z,1003.28
2023-05-07T00:25:30.307Z,1003.25
2023-05-07T00:26:30.300Z,1003.28
2023-05-07T00:27:35.401Z,1003.30
2023-05-07T00:28:30.276Z,1003.26
2023-05-07T00:29:30.268Z,1003.33
2023-05-07T00:30:30.251Z,1003.35
2023-05-07T00:31:30.278Z,1003.32
2023-05-07T00:32:30.274Z,1003.32
2023-05-07T00:33:30.218Z,1003.26
2023-05-07T00:34:30.244Z,1003.32
2023-05-07T00:35:30.287Z,1003.22
2023-05-07T00:36:30.183Z,1003.25
2023-05-07T00:37:30.201Z,1003.25
2023-05-07T00:38:35.187Z,1003.26
2023-05-07T00:39:30.153Z,1003.24
2023-05-07T00:40:30.161Z,1003.25
2023-05-07T00:41:30.181Z,1003.27
2023-05-07T00:42:30.125Z,1003.25
2023-05-07T00:43:30.105Z,1003.28
2023-05-07T00:44:30.090Z,1003.22
2023-05-07T00:45:30.086Z,1003.21
2023-05-07T00:46:30.245Z,1003.29
2023-05-07T00:47:30.165Z,1003.28
2023-05-07T00:48:30.090Z,1003.29
2023-05-07T00:49:35.062Z,1003.22
2023-05-07T00:50:30.029Z,1003.22
2023-05-07T00:51:30.118Z,1003.20
2023-05-07T00:52:30.000Z,1003.23
2023-05-07T00:53:29.991Z,1003.22
2023-05-07T00:54:30.009Z,1003.12
2023-05-07T00:55:29.973Z,1003.10
2023-05-07T00:56:29.964Z,1003.18
2023-05-07T00:57:29.947Z,1003.11
2023-05-07T00:58:29.935Z,1003.12
2023-05-07T00:59:29.985Z,1003.16
2023-05-07T01:00:35.020Z,1003.05
2023-05-07T01:01:29.930Z,1003.08
2023-05-07T01:02:29.941Z,1003.09
2023-05-07T01:03:29.874Z,1003.05
2023-05-07T01:04:29.917Z,1003.08
2023-05-07T01:05:29.862Z,1003.02
2023-05-07T01:06:29.898Z,1003.02
2023-05-07T01:07:29.931Z,1003.05
2023-05-07T01:08:29.828Z,1003.07
2023-05-07T01:09:29.848Z,1003.07
2023-05-07T01:10:29.799Z,1003.02
2023-05-07T01:11:34.817Z,1003.03
2023-05-07T01:12:29.801Z,1002.99
2023-05-07T01:13:29.765Z,1003.10
2023-05-07T01:14:29.752Z,1003.14
2023-05-07T01:15:29.762Z,1003.09
2023-05-07T01:16:29.782Z,1003.09
2023-05-07T01:17:29.765Z,1003.13
2023-05-07T01:18:29.739Z,1003.14
2023-05-07T01:19:29.695Z,1003.10
2023-05-07T01:20:29.701Z,1003.07
2023-05-07T01:21:29.678Z,1003.06
2023-05-07T01:22:34.835Z,1003.05
2023-05-07T01:23:29.661Z,1003.09
2023-05-07T01:24:29.665Z,1003.07
2023-05-07T01:25:29.634Z,1003.07
2023-05-07T01:26:29.617Z,1003.01
2023-05-07T01:27:29.607Z,1003.10
2023-05-07T01:28:29.600Z,1003.10
2023-05-07T01:29:29.594Z,1003.03
2023-05-07T01:30:29.674Z,1002.99
2023-05-07T01:31:29.604Z,1003.04
2023-05-07T01:32:29.579Z,1002.97
2023-05-07T01:33:34.562Z,1002.92
2023-05-07T01:34:29.539Z,1002.90
2023-05-07T01:35:29.516Z,1002.95
2023-05-07T01:36:29.522Z,1002.90
2023-05-07T01:37:29.496Z,1002.95
2023-05-07T01:38:29.504Z,1002.94
2023-05-07T01:39:29.496Z,1002.95
2023-05-07T01:40:29.463Z,1002.87
2023-05-07T01:41:29.449Z,1002.86
2023-05-07T01:42:29.444Z,1002.94
2023-05-07T01:43:29.433Z,1002.92
2023-05-07T01:44:34.438Z,1002.96
2023-05-07T01:45:29.398Z,1002.96
2023-05-07T01:46:29.401Z,1002.96
2023-05-07T01:47:29.426Z,1002.97
2023-05-07T01:48:29.396Z,1002.97
2023-05-07T01:49:29.359Z,1003.03
2023-05-07T01:50:29.338Z,1003.00
2023-05-07T01:51:29.329Z,1002.94
2023-05-07T01:52:29.317Z,1002.98
2023-05-07T01:53:29.333Z,1002.93
2023-05-07T01:54:29.320Z,1002.99
2023-05-07T01:55:34.333Z,1003.00
2023-05-07T01:56:29.270Z,1002.97
2023-05-07T01:57:29.260Z,1002.99
2023-05-07T01:58:29.257Z,1002.92
2023-05-07T01:59:29.240Z,1003.06
2023-05-07T02:00:29.223Z,1003.04
2023-05-07T02:01:29.270Z,1003.08
2023-05-07T02:02:29.304Z,1003.00
2023-05-07T02:03:29.259Z,1003.03
2023-05-07T02:04:29.192Z,1002.99
2023-05-07T02:05:29.171Z,1002.99
2023-05-07T02:06:34.184Z,1002.95
2023-05-07T02:07:29.158Z,1002.94
2023-05-07T02:08:29.149Z,1002.99
2023-05-07T02:09:29.132Z,1003.04
2023-05-07T02:10:29.146Z,1003.09
2023-05-07T02:11:29.104Z,1003.06
2023-05-07T02:12:29.101Z,1003.10
2023-05-07T02:13:29.087Z,1003.05
2023-05-07T02:14:29.109Z,1003.13
2023-05-07T02:15:29.069Z,1003.08
2023-05-07T02:16:29.119Z,1003.06
2023-05-07T02:17:34.155Z,1003.06
2023-05-07T02:18:29.028Z,1003.10
2023-05-07T02:19:29.024Z,1003.07
2023-05-07T02:20:29.009Z,1003.05
2023-05-07T02:21:31.111Z,1003.05
2023-05-07T02:22:28.993Z,1003.06
2023-05-07T02:23:28.972Z,1003.06
2023-05-07T02:24:28.962Z,1003.06
2023-05-07T02:25:28.945Z,1003.06
2023-05-07T02:26:28.969Z,1003.07
2023-05-07T02:27:28.951Z,1002.98
2023-05-07T02:28:33.936Z,1003.03
2023-05-07T02:29:28.904Z,1003.05
2023-05-07T02:30:28.889Z,1003.13
2023-05-07T02:31:28.905Z,1003.06
2023-05-07T02:32:28.911Z,1003.12
2023-05-07T02:33:28.865Z,1003.11
2023-05-07T02:34:28.843Z,1003.15
2023-05-07T02:35:28.837Z,1003.12
2023-05-07T02:36:28.839Z,1003.10
2023-05-07T02:37:28.813Z,1003.16
2023-05-07T02:38:28.802Z,1003.17
2023-05-07T02:39:33.819Z,1003.12
2023-05-07T02:40:28.794Z,1003.15
2023-05-07T02:41:28.778Z,1003.13
2023-05-07T02:42:28.850Z,1003.15
2023-05-07T02:43:28.747Z,1003.15
2023-05-07T02:44:28.736Z,1003.15
2023-05-07T02:45:28.860Z,1003.04
2023-05-07T02:46:28.859Z,1003.03
2023-05-07T02:47:28.724Z,1003.06
2023-05-07T02:48:28.691Z,1003.02
2023-05-07T02:49:28.688Z,1003.05
2023-05-07T02:50:33.700Z,1002.98
2023-05-07T02:51:28.654Z,1003.02
2023-05-07T02:52:28.654Z,1003.07
2023-05-07T02:53:28.630Z,1003.02
2023-05-07T02:54:28.619Z,1003.02
2023-05-07T02:55:28.622Z,1003.03
2023-05-07T02:56:28.593Z,1003.05
2023-05-07T02:57:28.583Z,1002.98
2023-05-07T02:58:28.679Z,1003.01
2023-05-07T02:59:28.566Z,1002.99
2023-05-07T03:00:28.558Z,1002.94
2023-05-07T03:01:33.590Z,1002.94
2023-05-07T03:02:28.559Z,1003.01
2023-05-07T03:03:28.527Z,1002.94
2023-05-07T03:04:28.554Z,1003.02
2023-05-07T03:05:28.505Z,1002.97
2023-05-07T03:06:28.481Z,1003.08
2023-05-07T03:07:28.470Z,1003.11
2023-05-07T03:08:28.467Z,1003.09
2023-05-07T03:09:28.459Z,1003.07
2023-05-07T03:10:28.459Z,1003.05
2023-05-07T03:11:28.425Z,1002.96
2023-05-07T03:12:33.436Z,1003.01
2023-05-07T03:13:28.459Z,1003.03
2023-05-07T03:14:28.496Z,1003.08
2023-05-07T03:15:28.386Z,1002.96
2023-05-07T03:16:28.423Z,1002.94
2023-05-07T03:17:28.401Z,1002.96
2023-05-07T03:18:28.377Z,1002.95
2023-05-07T03:19:28.342Z,1002.94
2023-05-07T03:20:28.396Z,1002.89
2023-05-07T03:21:28.312Z,1002.91
2023-05-07T03:22:28.302Z,1002.92
2023-05-07T03:23:33.329Z,1002.84
2023-05-07T03:24:28.288Z,1002.88
2023-05-07T03:25:28.267Z,1002.83
2023-05-07T03:26:28.254Z,1002.79
2023-05-07T03:27:28.245Z,1002.84
2023-05-07T03:28:28.248Z,1002.80
2023-05-07T03:29:28.223Z,1002.84
2023-05-07T03:30:28.312Z,1002.83
2023-05-07T03:31:28.218Z,1002.77
2023-05-07T03:32:28.204Z,1002.79
2023-05-07T03:33:28.189Z,1002.76
2023-05-07T03:34:33.191Z,1002.79
2023-05-07T03:35:28.214Z,1002.79
2023-05-07T03:36:28.149Z,1002.82
2023-05-07T03:37:28.130Z,1002.81
2023-05-07T03:38:28.133Z,1002.83
2023-05-07T03:39:28.105Z,1002.82
2023-05-07T03:40:28.109Z,1002.82
2023-05-07T03:41:28.085Z,1002.82
2023-05-07T03:42:28.072Z,1002.90
2023-05-07T03:43:28.068Z,1002.84
2023-05-07T03:44:28.055Z,1002.85
2023-05-07T03:45:33.176Z,1002.91
2023-05-07T03:46:28.071Z,1002.84
2023-05-07T03:47:28.045Z,1002.88
2023-05-07T03:48:28.010Z,1002.84
2023-05-07T03:49:28.002Z,1002.89
2023-05-07T03:50:27.993Z,1002.88
2023-05-07T03:51:27.977Z,1002.95
2023-05-07T03:52:27.968Z,1002.92
2023-05-07T03:53:27.991Z,1002.94
2023-05-07T03:54:27.935Z,1002.89
2023-05-07T03:55:27.919Z,1002.91
2023-05-07T03:56:32.942Z,1002.86
2023-05-07T03:57:27.919Z,1002.91
2023-05-07T03:58:27.892Z,1002.95
2023-05-07T03:59:27.894Z,1002.90
2023-05-07T04:00:27.869Z,1002.95
2023-05-07T04:01:27.890Z,1002.98
2023-05-07T04:02:28.011Z,1003.02
2023-05-07T04:03:27.883Z,1003.01
2023-05-07T04:04:27.872Z,1002.98
2023-05-07T04:05:27.819Z,1003.01
2023-05-07T04:06:27.802Z,1003.10
2023-05-07T04:07:32.825Z,1003.06
2023-05-07T04:08:27.773Z,1002.99
2023-05-07T04:09:27.770Z,1003.01
2023-05-07T04:10:27.768Z,1003.01
2023-05-07T04:11:27.755Z,1003.03
2023-05-07T04:12:27.743Z,1003.01
2023-05-07T04:13:27.744Z,1003.04
2023-05-07T04:14:27.707Z,1003.02
2023-05-07T04:15:27.698Z,1002.98
2023-05-07T04:16:27.745Z,1003.04
2023-05-07T04:17:27.724Z,1003.02
2023-05-07T04:18:32.697Z,1003.03
2023-05-07T04:19:27.654Z,1003.04
2023-05-07T04:20:27.637Z,1003.04
2023-05-07T04:21:27.652Z,1003.07
2023-05-07T04:22:27.630Z,1003.02
2023-05-07T04:23:27.609Z,1003.04
2023-05-07T04:24:27.610Z,1003.05
2023-05-07T04:25:27.591Z,1003.11
2023-05-07T04:26:27.578Z,1003.13
2023-05-07T04:27:27.571Z,1003.09
2023-05-07T04:28:27.550Z,1003.08
2023-05-07T04:29:32.581Z,1003.11
2023-05-07T04:30:27.539Z,1003.09
2023-05-07T04:31:27.528Z,1003.11
2023-05-07T04:32:27.550Z,1003.08
2023-05-07T04:33:27.514Z,1003.13
2023-05-07T04:34:27.477Z,1003.13
2023-05-07T04:35:27.466Z,1003.13
2023-05-07T04:36:27.466Z,1003.15
2023-05-07T04:37:27.445Z,1003.10
2023-05-07T04:38:27.431Z,1003.10
2023-05-07T04:39:27.416Z,1003.15
2023-05-07T04:40:32.434Z,1003.11
2023-05-07T04:41:27.408Z,1003.05
2023-05-07T04:42:27.381Z,1003.08
2023-05-07T04:43:27.377Z,1003.07
2023-05-07T04:44:27.361Z,1003.10
2023-05-07T04:45:27.357Z,1003.12
2023-05-07T04:46:27.413Z,1003.12
2023-05-07T04:47:27.371Z,1003.10
2023-05-07T04:48:27.324Z,1003.12
2023-05-07T04:49:27.396Z,1003.17
2023-05-07T04:50:27.326Z,1003.04
2023-05-07T04:51:32.308Z,1003.15
2023-05-07T04:52:27.478Z,1003.18
2023-05-07T04:53:27.261Z,1003.13
2023-05-07T04:54:27.246Z,1003.20
2023-05-07T04:55:27.245Z,1003.12
2023-05-07T04:56:27.234Z,1003.22
2023-05-07T04:57:27.212Z,1003.21
2023-05-07T04:58:27.227Z,1003.23
2023-05-07T04:59:27.200Z,1003.25
2023-05-07T05:00:27.188Z,1003.20
2023-05-07T05:01:27.302Z,1003.22
2023-05-07T05:02:32.230Z,1003.16
2023-05-07T05:03:27.307Z,1003.16
2023-05-07T05:04:27.156Z,1003.26
2023-05-07T05:05:27.213Z,1003.22
2023-05-07T05:06:27.115Z,1003.19
2023-05-07T05:07:27.104Z,1003.26
2023-05-07T05:08:27.098Z,1003.27
2023-05-07T05:09:27.087Z,1003.25
2023-05-07T05:10:27.079Z,1003.29
2023-05-07T05:11:27.057Z,1003.28
2023-05-07T05:12:27.066Z,1003.33
2023-05-07T05:13:32.067Z,1003.38
2023-05-07T05:14:27.048Z,1003.33
2023-05-07T05:15:27.015Z,1003.32
2023-05-07T05:16:27.054Z,1003.35
2023-05-07T05:17:26.997Z,1003.34
2023-05-07T05:18:26.986Z,1003.30
2023-05-07T05:19:26.977Z,1003.32
2023-05-07T05:20:26.964Z,1003.32
2023-05-07T05:21:27.037Z,1003.38
2023-05-07T05:22:26.931Z,1003.42
2023-05-07T05:23:26.931Z,1003.39
2023-05-07T05:24:31.934Z,1003.42
2023-05-07T05:25:26.924Z,1003.38
2023-05-07T05:26:26.903Z,1003.44
2023-05-07T05:27:26.894Z,1003.32
2023-05-07T05:28:26.873Z,1003.36
2023-05-07T05:29:26.854Z,1003.43
2023-05-07T05:30:26.842Z,1003.43
2023-05-07T05:31:26.879Z,1003.40
2023-05-07T05:32:26.930Z,1003.46
2023-05-07T05:33:26.831Z,1003.40
2023-05-07T05:34:26.799Z,1003.49
2023-05-07T05:35:31.822Z,1003.53
2023-05-07T05:36:26.775Z,1003.48
2023-05-07T05:37:26.873Z,1003.58
2023-05-07T05:38:26.759Z,1003.59
2023-05-07T05:39:26.748Z,1003.50
2023-05-07T05:40:26.763Z,1003.59
2023-05-07T05:41:26.738Z,1003.60
2023-05-07T05:42:26.718Z,1003.53
2023-05-07T05:43:26.699Z,1003.55
2023-05-07T05:44:26.686Z,1003.59
2023-05-07T05:45:26.684Z,1003.51
2023-05-07T05:46:31.762Z,1003.52
2023-05-07T05:47:26.719Z,1003.58
2023-05-07T05:48:26.636Z,1003.47
2023-05-07T05:49:26.632Z,1003.53
2023-05-07T05:50:26.624Z,1003.46
2023-05-07T05:51:26.617Z,1003.52
2023-05-07T05:52:26.632Z,1003.53
2023-05-07T05:53:26.614Z,1003.61
2023-05-07T05:54:26.586Z,1003.59
2023-05-07T05:55:26.570Z,1003.60
2023-05-07T05:56:26.561Z,1003.60
2023-05-07T05:57:31.580Z,1003.55
2023-05-07T05:58:26.535Z,1003.54
2023-05-07T05:59:26.560Z,1003.50
2023-05-07T06:00:26.517Z,1003.50
2023-05-07T06:01:26.489Z,1003.54
2023-05-07T06:02:26.603Z,1003.56
2023-05-07T06:03:26.607Z,1003.54
2023-05-07T06:04:26.465Z,1003.58
2023-05-07T06:05:26.515Z,1003.55
2023-05-07T06:06:26.435Z,1003.57
2023-05-07T06:07:26.469Z,1003.55
2023-05-07T06:08:31.520Z,1003.58
2023-05-07T06:09:26.406Z,1003.61
2023-05-07T06:10:26.412Z,1003.56
2023-05-07T06:11:26.387Z,1003.60
2023-05-07T06:12:26.365Z,1003.61
2023-05-07T06:13:26.757Z,1003.59
2023-05-07T06:14:26.361Z,1003.60
2023-05-07T06:15:26.353Z,1003.56
2023-05-07T06:16:26.366Z,1003.52
2023-05-07T06:17:26.330Z,1003.55
2023-05-07T06:18:26.299Z,1003.56
2023-05-07T06:19:31.319Z,1003.49
2023-05-07T06:20:26.275Z,1003.50
2023-05-07T06:21:26.264Z,1003.49
2023-05-07T06:22:26.258Z,1003.48
2023-05-07T06:23:26.242Z,1003.51
2023-05-07T06:24:26.260Z,1003.55
2023-05-07T06:25:26.228Z,1003.54
2023-05-07T06:26:26.207Z,1003.49
2023-05-07T06:27:26.194Z,1003.56
2023-05-07T06:28:26.196Z,1003.60
2023-05-07T06:29:26.210Z,1003.60
2023-05-07T06:30:31.186Z,1003.54
2023-05-07T06:31:26.163Z,1003.55
2023-05-07T06:32:26.166Z,1003.57
2023-05-07T06:33:26.149Z,1003.53
2023-05-07T06:34:26.138Z,1003.62
2023-05-07T06:35:26.120Z,1003.63
2023-05-07T06:36:26.095Z,1003.69
2023-05-07T06:37:26.097Z,1003.72
2023-05-07T06:38:26.084Z,1003.65
2023-05-07T06:39:26.078Z,1003.67
2023-05-07T06:40:26.083Z,1003.69
2023-05-07T06:41:31.066Z,1003.71
2023-05-07T06:42:26.044Z,1003.70
2023-05-07T06:43:26.027Z,1003.61
2023-05-07T06:44:26.008Z,1003.66
2023-05-07T06:45:26.017Z,1003.63
2023-05-07T06:46:26.054Z,1003.62
2023-05-07T06:47:26.026Z,1003.69
2023-05-07T06:48:25.983Z,1003.65
2023-05-07T06:49:25.951Z,1003.68
2023-05-07T06:50:25.959Z,1003.66
2023-05-07T06:51:25.934Z,1003.60
2023-05-07T06:52:30.959Z,1003.65
2023-05-07T06:53:25.903Z,1003.58
2023-05-07T06:54:25.894Z,1003.62
2023-05-07T06:55:25.882Z,1003.56
2023-05-07T06:56:25.962Z,1003.61
2023-05-07T06:57:25.876Z,1003.67
2023-05-07T06:58:25.851Z,1003.64
2023-05-07T06:59:25.846Z,1003.64
2023-05-07T07:00:25.844Z,1003.65
2023-05-07T07:01:25.919Z,1003.57
2023-05-07T07:02:25.846Z,1003.59
2023-05-07T07:03:30.828Z,1003.61
2023-05-07T07:04:25.816Z,1003.59
2023-05-07T07:05:25.773Z,1003.59
2023-05-07T07:06:25.768Z,1003.61
2023-05-07T07:07:25.751Z,1003.65
2023-05-07T07:08:25.739Z,1003.68
2023-05-07T07:09:25.722Z,1003.70
2023-05-07T07:10:25.732Z,1003.68
2023-05-07T07:11:25.712Z,1003.61
2023-05-07T07:12:25.777Z,1003.66
2023-05-07T07:13:25.857Z,1003.69
2023-05-07T07:14:30.693Z,1003.67
2023-05-07T07:15:25.656Z,1003.69
2023-05-07T07:16:25.675Z,1003.73
2023-05-07T07:17:25.662Z,1003.74
2023-05-07T07:18:25.616Z,1003.69
2023-05-07T07:19:25.610Z,1003.72
2023-05-07T07:20:25.713Z,1003.76
2023-05-07T07:21:25.593Z,1003.72
2023-05-07T07:22:25.566Z,1003.75
2023-05-07T07:23:25.562Z,1003.77
2023-05-07T07:24:25.559Z,1003.79
2023-05-07T07:25:30.580Z,1003.87
2023-05-07T07:26:25.543Z,1003.81
2023-05-07T07:27:25.512Z,1003.75
2023-05-07T07:28:25.700Z,1003.79
2023-05-07T07:29:25.494Z,1003.82
2023-05-07T07:30:25.491Z,1003.86
2023-05-07T07:31:25.560Z,1003.86
2023-05-07T07:32:25.477Z,1003.80
2023-05-07T07:33:25.458Z,1003.85
2023-05-07T07:34:25.438Z,1003.85
2023-05-07T07:35:25.772Z,1003.86
2023-05-07T07:36:39.037Z,1003.87
2023-05-07T07:37:26.406Z,1003.85
2023-05-07T07:38:25.385Z,1003.85
2023-05-07T07:39:25.385Z,1003.82
2023-05-07T07:40:25.398Z,1003.79
2023-05-07T07:41:25.366Z,1003.78
2023-05-07T07:42:25.365Z,1003.84
2023-05-07T07:43:25.340Z,1003.77
2023-05-07T07:44:25.348Z,1003.83
2023-05-07T07:45:25.332Z,1003.82
2023-05-07T07:46:25.363Z,1003.84
2023-05-07T07:47:30.324Z,1003.87
2023-05-07T07:48:25.286Z,1003.87
2023-05-07T07:49:25.273Z,1003.85
2023-05-07T07:50:39.931Z,1003.87
2023-05-07T07:51:25.244Z,1003.91
2023-05-07T07:52:25.230Z,1003.87
2023-05-07T07:53:25.218Z,1003.90
2023-05-07T07:54:25.231Z,1003.94
2023-05-07T07:55:25.221Z,1003.93
2023-05-07T07:56:25.186Z,1003.87
2023-05-07T07:57:25.179Z,1003.91
2023-05-07T07:58:30.194Z,1003.91
2023-05-07T07:59:25.160Z,1003.93
2023-05-07T08:00:25.286Z,1003.88
2023-05-07T08:01:25.132Z,1003.96
2023-05-07T08:02:25.228Z,1003.90
2023-05-07T08:03:25.226Z,1003.97
2023-05-07T08:04:25.140Z,1003.92
2023-05-07T08:05:25.080Z,1003.95
2023-05-07T08:06:25.077Z,1003.94
2023-05-07T08:07:25.066Z,1003.91
2023-05-07T08:08:25.056Z,1004.00
2023-05-07T08:09:30.064Z,1003.96
2023-05-07T08:10:25.036Z,1003.95
2023-05-07T08:11:25.037Z,1004.03
2023-05-07T08:12:25.048Z,1004.03
2023-05-07T08:13:25.178Z,1004.03
2023-05-07T08:14:24.983Z,1004.06
2023-05-07T08:15:24.974Z,1004.08
2023-05-07T08:16:25.088Z,1004.09
2023-05-07T08:17:25.081Z,1004.03
2023-05-07T08:18:24.954Z,1004.08
2023-05-07T08:19:24.936Z,1004.14
2023-05-07T08:20:29.954Z,1004.05
2023-05-07T08:21:24.905Z,1004.14
2023-05-07T08:22:24.910Z,1004.11
2023-05-07T08:23:24.883Z,1004.12
2023-05-07T08:24:24.889Z,1004.13
2023-05-07T08:25:24.875Z,1004.09
2023-05-07T08:26:24.913Z,1004.18
2023-05-07T08:27:24.846Z,1004.17
2023-05-07T08:28:24.838Z,1004.06
2023-05-07T08:29:24.851Z,1004.16
2023-05-07T08:30:24.808Z,1004.18
2023-05-07T08:31:29.859Z,1004.14
2023-05-07T08:32:24.799Z,1004.15
2023-05-07T08:33:24.768Z,1004.14
2023-05-07T08:34:24.759Z,1004.16
2023-05-07T08:35:24.781Z,1004.10
2023-05-07T08:36:24.757Z,1004.20
2023-05-07T08:37:24.728Z,1004.21
2023-05-07T08:38:24.720Z,1004.20
2023-05-07T08:39:24.705Z,1004.23
2023-05-07T08:40:24.726Z,1004.20
2023-05-07T08:41:24.693Z,1004.24
2023-05-07T08:42:29.776Z,1004.25
2023-05-07T08:43:24.659Z,1004.23
2023-05-07T08:44:24.648Z,1004.26
2023-05-07T08:45:24.648Z,1004.25
2023-05-07T08:46:24.653Z,1004.22
2023-05-07T08:47:24.662Z,1004.17
2023-05-07T08:48:24.603Z,1004.20
2023-05-07T08:49:24.596Z,1004.25
2023-05-07T08:50:24.618Z,1004.20
2023-05-07T08:51:24.568Z,1004.18
2023-05-07T08:52:24.558Z,1004.18
2023-05-07T08:53:29.575Z,1004.10
2023-05-07T08:54:24.533Z,1004.18
2023-05-07T08:55:24.526Z,1004.22
2023-05-07T08:56:24.512Z,1004.13
2023-05-07T08:57:24.520Z,1004.15
2023-05-07T08:58:24.482Z,1004.12
2023-05-07T08:59:24.505Z,1004.13
2023-05-07T09:00:24.482Z,1004.12
2023-05-07T09:01:24.503Z,1004.13
2023-05-07T09:02:24.724Z,1004.21
2023-05-07T09:03:24.525Z,1004.16
2023-05-07T09:04:29.515Z,1004.19
2023-05-07T09:05:24.409Z,1004.20
2023-05-07T09:06:24.397Z,1004.10
2023-05-07T09:07:24.384Z,1004.03
2023-05-07T09:08:24.372Z,1004.02
2023-05-07T09:09:24.371Z,1003.96
2023-05-07T09:10:24.349Z,1003.93
2023-05-07T09:11:24.372Z,1003.92
2023-05-07T09:12:24.324Z,1003.93
2023-05-07T09:13:24.347Z,1003.93
2023-05-07T09:14:24.312Z,1003.93
2023-05-07T09:15:29.324Z,1003.88
2023-05-07T09:16:24.348Z,1003.94
2023-05-07T09:17:24.335Z,1003.92
2023-05-07T09:18:24.267Z,1003.90
2023-05-07T09:19:24.266Z,1003.98
2023-05-07T09:20:24.243Z,1003.92
2023-05-07T09:21:24.260Z,1003.93
2023-05-07T09:22:24.217Z,1003.98
2023-05-07T09:23:24.228Z,1004.07
2023-05-07T09:24:24.190Z,1004.00
2023-05-07T09:25:24.181Z,1003.99
2023-05-07T09:26:29.294Z,1004.00
2023-05-07T09:27:24.155Z,1003.97
2023-05-07T09:28:24.159Z,1004.05
2023-05-07T09:29:24.178Z,1004.03
2023-05-07T09:30:24.122Z,1004.05
2023-05-07T09:31:24.182Z,1004.02
2023-05-07T09:32:24.144Z,1003.98
2023-05-07T09:33:24.098Z,1004.07
2023-05-07T09:34:24.078Z,1004.08
2023-05-07T09:35:24.087Z,1004.04
2023-05-07T09:36:24.071Z,1004.07
2023-05-07T09:37:29.076Z,1004.06
2023-05-07T09:38:24.048Z,1004.07
2023-05-07T09:39:24.022Z,1004.10
2023-05-07T09:40:24.026Z,1004.13
2023-05-07T09:41:24.034Z,1004.11
2023-05-07T09:42:24.004Z,1004.11
2023-05-07T09:43:23.973Z,1004.10
2023-05-07T09:44:23.973Z,1004.15
2023-05-07T09:45:23.980Z,1004.12
2023-05-07T09:46:23.957Z,1004.04
2023-05-07T09:47:23.997Z,1004.10
2023-05-07T09:48:28.944Z,1004.02
2023-05-07T09:49:23.916Z,1003.97
2023-05-07T09:50:23.907Z,1003.95
2023-05-07T09:51:24.064Z,1004.00
2023-05-07T09:52:23.880Z,1004.07
2023-05-07T09:53:23.884Z,1004.06
2023-05-07T09:54:23.873Z,1003.98
2023-05-07T09:55:23.851Z,1004.00
2023-05-07T09:56:23.846Z,1004.00
2023-05-07T09:57:23.830Z,1003.97
2023-05-07T09:58:23.820Z,1003.97
2023-05-07T09:59:30.205Z,1003.96
2023-05-07T10:00:23.790Z,1003.92
2023-05-07T10:01:23.793Z,1003.94
2023-05-07T10:02:24.013Z,1003.95
2023-05-07T10:03:23.854Z,1003.92
2023-05-07T10:04:23.749Z,1003.93
2023-05-07T10:05:23.756Z,1003.88
2023-05-07T10:06:23.728Z,1003.90
2023-05-07T10:07:23.815Z,1003.84
2023-05-07T10:08:23.698Z,1003.75
2023-05-07T10:09:23.680Z,1003.80
2023-05-07T10:10:28.721Z,1003.84
2023-05-07T10:11:23.663Z,1003.84
2023-05-07T10:12:23.653Z,1003.83
2023-05-07T10:13:23.822Z,1003.83
2023-05-07T10:14:23.627Z,1003.77
2023-05-07T10:15:23.628Z,1003.80
2023-05-07T10:16:23.602Z,1003.80
2023-05-07T10:17:23.646Z,1003.84
2023-05-07T10:18:23.722Z,1003.80
2023-05-07T10:19:23.583Z,1003.71
2023-05-07T10:20:23.579Z,1003.72
2023-05-07T10:21:28.581Z,1003.70
2023-05-07T10:22:23.548Z,1003.78
2023-05-07T10:23:23.679Z,1003.82
2023-05-07T10:24:23.525Z,1003.76
2023-05-07T10:25:23.579Z,1003.75
2023-05-07T10:26:23.494Z,1003.72
2023-05-07T10:27:23.488Z,1003.67
2023-05-07T10:28:23.500Z,1003.70
2023-05-07T10:29:23.484Z,1003.74
2023-05-07T10:30:23.457Z,1003.73
2023-05-07T10:31:23.509Z,1003.80
2023-05-07T10:32:28.502Z,1003.57
2023-05-07T10:33:23.413Z,1003.70
2023-05-07T10:34:23.458Z,1003.65
2023-05-07T10:35:23.393Z,1003.68
2023-05-07T10:36:23.388Z,1003.66
2023-05-07T10:37:23.369Z,1003.68
2023-05-07T10:38:23.371Z,1003.69
2023-05-07T10:39:23.459Z,1003.68
2023-05-07T10:40:23.382Z,1003.73
2023-05-07T10:41:23.328Z,1003.76
2023-05-07T10:42:23.352Z,1003.67
2023-05-07T10:43:28.334Z,1003.67
2023-05-07T10:44:23.292Z,1003.65
2023-05-07T10:45:23.280Z,1003.67
2023-05-07T10:46:23.337Z,1003.68
2023-05-07T10:47:23.289Z,1003.70
2023-05-07T10:48:30.357Z,1003.72
2023-05-07T10:49:24.688Z,1003.70
2023-05-07T10:50:23.283Z,1003.66
2023-05-07T10:51:23.391Z,1003.56
2023-05-07T10:52:23.244Z,1003.62
2023-05-07T10:53:23.243Z,1003.59
2023-05-07T10:54:28.345Z,1003.48
2023-05-07T10:55:23.207Z,1003.59
2023-05-07T10:56:23.193Z,1003.60
2023-05-07T10:57:23.156Z,1003.52
2023-05-07T10:58:31.426Z,1003.60
2023-05-07T10:59:23.129Z,1003.71
2023-05-07T11:00:38.113Z,1003.90
2023-05-07T11:01:23.140Z,1003.84
2023-05-07T11:02:23.137Z,1003.87
2023-05-07T11:03:23.082Z,1003.67
2023-05-07T11:04:23.072Z,1003.58
2023-05-07T11:05:23.230Z,1003.56
2023-05-07T11:06:23.055Z,1003.51
2023-05-07T11:07:28.095Z,1003.59
2023-05-07T11:08:23.045Z,1003.42
2023-05-07T11:09:23.043Z,1003.45
2023-05-07T11:10:23.023Z,1003.44
2023-05-07T11:11:23.007Z,1003.46
2023-05-07T11:12:22.997Z,1003.54
2023-05-07T11:13:23.078Z,1003.56
2023-05-07T11:14:22.954Z,1003.40
2023-05-07T11:15:22.946Z,1003.39
2023-05-07T11:16:23.042Z,1003.42
2023-05-07T11:17:22.994Z,1003.42
2023-05-07T11:18:22.948Z,1003.38
2023-05-07T11:19:22.904Z,1003.45
2023-05-07T11:20:27.911Z,1003.39
2023-05-07T11:21:22.915Z,1003.54
2023-05-07T11:22:22.899Z,1003.46
2023-05-07T11:23:22.857Z,1003.54
2023-05-07T11:24:22.857Z,1003.48
2023-05-07T11:25:22.859Z,1003.58
2023-05-07T11:26:22.865Z,1003.55
2023-05-07T11:27:22.823Z,1003.45
2023-05-07T11:28:22.813Z,1003.48
2023-05-07T11:29:23.331Z,1003.46
2023-05-07T11:30:22.821Z,1003.39
2023-05-07T11:31:22.790Z,1003.38
2023-05-07T11:32:22.757Z,1003.43
2023-05-07T11:33:27.790Z,1003.31
2023-05-07T11:34:22.760Z,1003.35
2023-05-07T11:35:22.763Z,1003.34
2023-05-07T11:36:22.708Z,1003.28
2023-05-07T11:37:22.702Z,1003.26
2023-05-07T11:38:22.708Z,1003.39
2023-05-07T11:39:22.681Z,1003.26
2023-05-07T11:40:22.722Z,1003.30
2023-05-07T11:41:22.681Z,1003.35
2023-05-07T11:42:22.673Z,1003.40
2023-05-07T11:43:22.662Z,1003.37
2023-05-07T11:44:22.649Z,1003.37
2023-05-07T11:45:22.622Z,1003.29
2023-05-07T11:46:27.669Z,1003.28
2023-05-07T11:47:22.696Z,1003.29
2023-05-07T11:48:22.607Z,1003.32
2023-05-07T11:49:22.585Z,1003.48
2023-05-07T11:50:22.571Z,1003.43
2023-05-07T11:51:22.583Z,1003.37
2023-05-07T11:52:22.548Z,1003.42
2023-05-07T11:53:22.522Z,1003.42
2023-05-07T11:54:22.540Z,1003.45
2023-05-07T11:55:22.505Z,1003.32
2023-05-07T11:56:22.496Z,1003.34
2023-05-07T11:57:22.488Z,1003.34
2023-05-07T11:58:22.512Z,1003.37
2023-05-07T11:59:27.510Z,1003.34
2023-05-07T12:00:22.471Z,1003.39
2023-05-07T12:01:22.487Z,1003.36
2023-05-07T12:02:22.482Z,1003.28
2023-05-07T12:03:22.500Z,1003.29
2023-05-07T12:04:22.633Z,1003.31
2023-05-07T12:05:22.410Z,1003.38